sensor_id;sensor_type;location;lat;lon;timestamp;P1;durP1;ratioP1;P2;durP2;ratioP2
64297;SDS011;50639;53.270;7.956;2023-07-02T00:00:05;15.55;;;3.83;;
64297;SDS011;50639;53.270;7.956;2023-07-02T00:02:36;10.90;;;3.50;;
64297;SDS011;50639;53.270;7.956;2023-07-02T00:05:02;12.60;;;4.15;;
64297;SDS011;50639;53.270;7.956;2023-07-02T00:07:27;8.75;;;3.63;;
64297;SDS011;50639;53.270;7.956;2023-07-02T00:09:53;9.02;;;3.38;;
64297;SDS011;50639;53.270;7.956;2023-07-02T00:12:19;10.23;;;3.70;;
64297;SDS011;50639;53.270;7.956;2023-07-02T00:14:44;11.05;;;3.90;;
64297;SDS011;50639;53.270;7.956;2023-07-02T00:17:10;9.68;;;3.60;;
64297;SDS011;50639;53.270;7.956;2023-07-02T00:19:39;9.43;;;3.40;;
64297;SDS011;50639;53.270;7.956;2023-07-02T00:22:07;7.38;;;3.60;;
64297;SDS011;50639;53.270;7.956;2023-07-02T00:24:35;9.27;;;3.50;;
64297;SDS011;50639;53.270;7.956;2023-07-02T00:27:02;8.73;;;3.70;;
64297;SDS011;50639;53.270;7.956;2023-07-02T00:29:28;8.45;;;3.67;;
64297;SDS011;50639;53.270;7.956;2023-07-02T00:31:53;13.25;;;4.18;;
64297;SDS011;50639;53.270;7.956;2023-07-02T00:34:18;11.45;;;3.90;;
64297;SDS011;50639;53.270;7.956;2023-07-02T00:36:44;9.35;;;3.60;;
64297;SDS011;50639;53.270;7.956;2023-07-02T00:39:10;10.18;;;3.85;;
64297;SDS011;50639;53.270;7.956;2023-07-02T00:41:37;12.35;;;4.03;;
64297;SDS011;50639;53.270;7.956;2023-07-02T00:44:03;9.90;;;3.60;;
64297;SDS011;50639;53.270;7.956;2023-07-02T00:46:29;11.52;;;4.40;;
64297;SDS011;50639;53.270;7.956;2023-07-02T00:48:55;14.25;;;4.68;;
64297;SDS011;50639;53.270;7.956;2023-07-02T00:51:22;13.13;;;4.40;;
64297;SDS011;50639;53.270;7.956;2023-07-02T00:53:51;13.35;;;4.70;;
64297;SDS011;50639;53.270;7.956;2023-07-02T00:56:18;15.98;;;5.28;;
64297;SDS011;50639;53.270;7.956;2023-07-02T00:58:46;14.50;;;4.55;;
64297;SDS011;50639;53.270;7.956;2023-07-02T01:01:25;11.10;;;4.90;;
64297;SDS011;50639;53.270;7.956;2023-07-02T01:03:57;12.23;;;4.60;;
64297;SDS011;50639;53.270;7.956;2023-07-02T01:06:27;12.90;;;4.78;;
64297;SDS011;50639;53.270;7.956;2023-07-02T01:08:57;15.32;;;4.95;;
64297;SDS011;50639;53.270;7.956;2023-07-02T01:11:35;16.05;;;5.10;;
64297;SDS011;50639;53.270;7.956;2023-07-02T01:14:08;10.77;;;4.72;;
64297;SDS011;50639;53.270;7.956;2023-07-02T01:16:46;11.98;;;4.53;;
64297;SDS011;50639;53.270;7.956;2023-07-02T01:19:18;12.68;;;4.68;;
64297;SDS011;50639;53.270;7.956;2023-07-02T01:21:50;11.05;;;5.03;;
64297;SDS011;50639;53.270;7.956;2023-07-02T01:24:16;18.40;;;5.20;;
64297;SDS011;50639;53.270;7.956;2023-07-02T01:26:42;12.23;;;4.95;;
64297;SDS011;50639;53.270;7.956;2023-07-02T01:31:39;13.77;;;5.10;;
64297;SDS011;50639;53.270;7.956;2023-07-02T01:34:05;13.70;;;5.05;;
64297;SDS011;50639;53.270;7.956;2023-07-02T01:36:32;15.60;;;5.70;;
64297;SDS011;50639;53.270;7.956;2023-07-02T01:38:58;12.27;;;5.30;;
64297;SDS011;50639;53.270;7.956;2023-07-02T01:41:36;12.40;;;5.28;;
64297;SDS011;50639;53.270;7.956;2023-07-02T01:44:06;18.25;;;6.57;;
64297;SDS011;50639;53.270;7.956;2023-07-02T01:46:32;14.95;;;6.22;;
64297;SDS011;50639;53.270;7.956;2023-07-02T01:48:58;14.88;;;5.50;;
64297;SDS011;50639;53.270;7.956;2023-07-02T01:51:23;17.67;;;6.72;;
64297;SDS011;50639;53.270;7.956;2023-07-02T01:56:16;19.87;;;6.40;;
64297;SDS011;50639;53.270;7.956;2023-07-02T01:58:43;12.98;;;5.72;;
64297;SDS011;50639;53.270;7.956;2023-07-02T02:01:09;18.42;;;6.72;;
64297;SDS011;50639;53.270;7.956;2023-07-02T02:03:34;18.45;;;6.72;;
64297;SDS011;50639;53.270;7.956;2023-07-02T02:05:59;16.85;;;6.85;;
64297;SDS011;50639;53.270;7.956;2023-07-02T02:08:25;15.32;;;6.63;;
64297;SDS011;50639;53.270;7.956;2023-07-02T02:10:50;16.98;;;7.47;;
64297;SDS011;50639;53.270;7.956;2023-07-02T02:13:16;15.35;;;6.53;;
64297;SDS011;50639;53.270;7.956;2023-07-02T02:15:41;17.73;;;6.95;;
64297;SDS011;50639;53.270;7.956;2023-07-02T02:18:07;18.15;;;7.18;;
64297;SDS011;50639;53.270;7.956;2023-07-02T02:20:32;20.05;;;7.22;;
64297;SDS011;50639;53.270;7.956;2023-07-02T02:22:58;18.35;;;7.40;;
64297;SDS011;50639;53.270;7.956;2023-07-02T02:25:23;24.05;;;7.50;;
64297;SDS011;50639;53.270;7.956;2023-07-02T02:27:49;19.83;;;7.68;;
64297;SDS011;50639;53.270;7.956;2023-07-02T02:30:15;27.63;;;7.65;;
64297;SDS011;50639;53.270;7.956;2023-07-02T02:32:40;24.45;;;8.07;;
64297;SDS011;50639;53.270;7.956;2023-07-02T02:35:08;20.23;;;7.63;;
64297;SDS011;50639;53.270;7.956;2023-07-02T02:37:37;24.58;;;9.00;;
64297;SDS011;50639;53.270;7.956;2023-07-02T02:40:04;24.27;;;8.23;;
64297;SDS011;50639;53.270;7.956;2023-07-02T02:42:31;17.23;;;7.45;;
64297;SDS011;50639;53.270;7.956;2023-07-02T02:44:56;24.70;;;7.70;;
64297;SDS011;50639;53.270;7.956;2023-07-02T02:47:22;25.67;;;8.90;;
64297;SDS011;50639;53.270;7.956;2023-07-02T02:49:47;20.65;;;8.10;;
64297;SDS011;50639;53.270;7.956;2023-07-02T02:52:13;22.35;;;7.90;;
64297;SDS011;50639;53.270;7.956;2023-07-02T02:54:39;35.17;;;9.98;;
64297;SDS011;50639;53.270;7.956;2023-07-02T02:57:05;23.67;;;9.50;;
64297;SDS011;50639;53.270;7.956;2023-07-02T02:59:30;26.20;;;8.95;;
64297;SDS011;50639;53.270;7.956;2023-07-02T03:01:56;25.92;;;9.00;;
64297;SDS011;50639;53.270;7.956;2023-07-02T03:04:21;29.08;;;9.25;;
64297;SDS011;50639;53.270;7.956;2023-07-02T03:06:50;27.10;;;8.90;;
64297;SDS011;50639;53.270;7.956;2023-07-02T03:09:16;24.10;;;8.23;;
64297;SDS011;50639;53.270;7.956;2023-07-02T03:11:42;27.00;;;9.98;;
64297;SDS011;50639;53.270;7.956;2023-07-02T03:14:07;27.27;;;8.80;;
64297;SDS011;50639;53.270;7.956;2023-07-02T03:16:33;28.17;;;9.50;;
64297;SDS011;50639;53.270;7.956;2023-07-02T03:18:58;23.27;;;8.52;;
64297;SDS011;50639;53.270;7.956;2023-07-02T03:21:24;27.42;;;9.13;;
64297;SDS011;50639;53.270;7.956;2023-07-02T03:23:49;22.80;;;8.60;;
64297;SDS011;50639;53.270;7.956;2023-07-02T03:26:15;29.58;;;9.63;;
64297;SDS011;50639;53.270;7.956;2023-07-02T03:28:40;22.85;;;9.52;;
64297;SDS011;50639;53.270;7.956;2023-07-02T03:31:06;26.23;;;9.23;;
64297;SDS011;50639;53.270;7.956;2023-07-02T03:33:31;23.50;;;8.90;;
64297;SDS011;50639;53.270;7.956;2023-07-02T03:35:57;29.48;;;10.07;;
64297;SDS011;50639;53.270;7.956;2023-07-02T03:38:22;22.90;;;8.27;;
64297;SDS011;50639;53.270;7.956;2023-07-02T03:40:48;25.52;;;8.70;;
64297;SDS011;50639;53.270;7.956;2023-07-02T03:43:13;34.88;;;9.27;;
64297;SDS011;50639;53.270;7.956;2023-07-02T03:45:39;27.67;;;8.77;;
64297;SDS011;50639;53.270;7.956;2023-07-02T03:48:04;25.30;;;9.32;;
64297;SDS011;50639;53.270;7.956;2023-07-02T03:50:30;27.33;;;8.88;;
64297;SDS011;50639;53.270;7.956;2023-07-02T03:52:55;29.65;;;9.75;;
64297;SDS011;50639;53.270;7.956;2023-07-02T03:55:21;25.88;;;9.18;;
64297;SDS011;50639;53.270;7.956;2023-07-02T03:57:46;22.23;;;8.88;;
64297;SDS011;50639;53.270;7.956;2023-07-02T04:00:11;23.55;;;9.05;;
64297;SDS011;50639;53.270;7.956;2023-07-02T04:02:40;23.90;;;8.45;;
64297;SDS011;50639;53.270;7.956;2023-07-02T04:05:06;21.50;;;8.57;;
64297;SDS011;50639;53.270;7.956;2023-07-02T04:07:31;24.65;;;9.57;;
64297;SDS011;50639;53.270;7.956;2023-07-02T04:09:57;28.10;;;9.48;;
64297;SDS011;50639;53.270;7.956;2023-07-02T04:12:22;24.48;;;9.32;;
64297;SDS011;50639;53.270;7.956;2023-07-02T04:14:47;27.17;;;10.18;;
64297;SDS011;50639;53.270;7.956;2023-07-02T04:17:13;34.50;;;10.40;;
64297;SDS011;50639;53.270;7.956;2023-07-02T04:19:38;25.33;;;9.75;;
64297;SDS011;50639;53.270;7.956;2023-07-02T04:22:04;19.58;;;9.15;;
64297;SDS011;50639;53.270;7.956;2023-07-02T04:24:29;24.25;;;9.32;;
64297;SDS011;50639;53.270;7.956;2023-07-02T04:26:55;29.02;;;10.55;;
64297;SDS011;50639;53.270;7.956;2023-07-02T04:29:20;28.42;;;10.05;;
64297;SDS011;50639;53.270;7.956;2023-07-02T04:31:46;29.75;;;9.82;;
64297;SDS011;50639;53.270;7.956;2023-07-02T04:34:11;31.33;;;10.10;;
64297;SDS011;50639;53.270;7.956;2023-07-02T04:36:37;32.35;;;10.50;;
64297;SDS011;50639;53.270;7.956;2023-07-02T04:39:02;26.88;;;10.65;;
64297;SDS011;50639;53.270;7.956;2023-07-02T04:41:28;27.95;;;10.02;;
64297;SDS011;50639;53.270;7.956;2023-07-02T04:43:54;35.07;;;9.30;;
64297;SDS011;50639;53.270;7.956;2023-07-02T04:46:20;31.35;;;9.75;;
64297;SDS011;50639;53.270;7.956;2023-07-02T04:48:46;24.73;;;9.23;;
64297;SDS011;50639;53.270;7.956;2023-07-02T04:51:11;25.27;;;9.55;;
64297;SDS011;50639;53.270;7.956;2023-07-02T04:53:36;34.63;;;10.43;;
64297;SDS011;50639;53.270;7.956;2023-07-02T04:56:02;26.20;;;10.07;;
64297;SDS011;50639;53.270;7.956;2023-07-02T04:58:28;28.63;;;10.68;;
64297;SDS011;50639;53.270;7.956;2023-07-02T05:00:54;28.50;;;10.40;;
64297;SDS011;50639;53.270;7.956;2023-07-02T05:03:19;33.20;;;9.95;;
64297;SDS011;50639;53.270;7.956;2023-07-02T05:05:44;23.73;;;9.35;;
64297;SDS011;50639;53.270;7.956;2023-07-02T05:08:10;27.92;;;9.95;;
64297;SDS011;50639;53.270;7.956;2023-07-02T05:10:35;30.40;;;10.13;;
64297;SDS011;50639;53.270;7.956;2023-07-02T05:13:01;29.23;;;11.55;;
64297;SDS011;50639;53.270;7.956;2023-07-02T05:15:26;25.45;;;9.55;;
64297;SDS011;50639;53.270;7.956;2023-07-02T05:17:52;34.40;;;10.15;;
64297;SDS011;50639;53.270;7.956;2023-07-02T05:20:17;25.58;;;10.15;;
64297;SDS011;50639;53.270;7.956;2023-07-02T05:22:43;27.13;;;9.93;;
64297;SDS011;50639;53.270;7.956;2023-07-02T05:25:08;30.10;;;10.52;;
64297;SDS011;50639;53.270;7.956;2023-07-02T05:27:34;30.05;;;10.10;;
64297;SDS011;50639;53.270;7.956;2023-07-02T05:29:59;30.27;;;12.52;;
64297;SDS011;50639;53.270;7.956;2023-07-02T05:32:25;27.23;;;11.25;;
64297;SDS011;50639;53.270;7.956;2023-07-02T05:34:51;27.98;;;9.15;;
64297;SDS011;50639;53.270;7.956;2023-07-02T05:37:17;29.60;;;10.85;;
64297;SDS011;50639;53.270;7.956;2023-07-02T05:39:42;30.70;;;9.95;;
64297;SDS011;50639;53.270;7.956;2023-07-02T05:42:08;32.42;;;9.95;;
64297;SDS011;50639;53.270;7.956;2023-07-02T05:44:33;22.20;;;10.25;;
64297;SDS011;50639;53.270;7.956;2023-07-02T05:46:59;26.42;;;9.55;;
64297;SDS011;50639;53.270;7.956;2023-07-02T05:49:24;28.30;;;9.98;;
64297;SDS011;50639;53.270;7.956;2023-07-02T05:51:51;39.47;;;10.65;;
64297;SDS011;50639;53.270;7.956;2023-07-02T05:54:17;37.47;;;10.05;;
64297;SDS011;50639;53.270;7.956;2023-07-02T05:56:43;28.80;;;9.80;;
64297;SDS011;50639;53.270;7.956;2023-07-02T05:59:08;28.48;;;9.55;;
64297;SDS011;50639;53.270;7.956;2023-07-02T06:01:33;31.42;;;9.52;;
64297;SDS011;50639;53.270;7.956;2023-07-02T06:03:59;28.27;;;9.13;;
64297;SDS011;50639;53.270;7.956;2023-07-02T06:06:24;23.88;;;9.55;;
64297;SDS011;50639;53.270;7.956;2023-07-02T06:08:50;29.75;;;9.32;;
64297;SDS011;50639;53.270;7.956;2023-07-02T06:11:15;27.70;;;10.02;;
64297;SDS011;50639;53.270;7.956;2023-07-02T06:13:41;30.27;;;9.45;;
64297;SDS011;50639;53.270;7.956;2023-07-02T06:16:06;22.73;;;9.38;;
64297;SDS011;50639;53.270;7.956;2023-07-02T06:18:32;24.05;;;9.43;;
64297;SDS011;50639;53.270;7.956;2023-07-02T06:20:57;28.05;;;8.98;;
64297;SDS011;50639;53.270;7.956;2023-07-02T06:23:23;30.45;;;10.68;;
64297;SDS011;50639;53.270;7.956;2023-07-02T06:25:48;32.00;;;9.40;;
64297;SDS011;50639;53.270;7.956;2023-07-02T06:28:17;23.75;;;8.73;;
64297;SDS011;50639;53.270;7.956;2023-07-02T06:30:42;23.70;;;8.55;;
64297;SDS011;50639;53.270;7.956;2023-07-02T06:33:08;25.95;;;8.40;;
64297;SDS011;50639;53.270;7.956;2023-07-02T06:35:33;28.63;;;9.30;;
64297;SDS011;50639;53.270;7.956;2023-07-02T06:37:59;26.63;;;9.98;;
64297;SDS011;50639;53.270;7.956;2023-07-02T06:40:24;25.20;;;8.57;;
64297;SDS011;50639;53.270;7.956;2023-07-02T06:42:50;25.08;;;9.27;;
64297;SDS011;50639;53.270;7.956;2023-07-02T06:45:15;25.88;;;9.10;;
64297;SDS011;50639;53.270;7.956;2023-07-02T06:47:40;27.92;;;9.02;;
64297;SDS011;50639;53.270;7.956;2023-07-02T06:50:06;29.92;;;8.88;;
64297;SDS011;50639;53.270;7.956;2023-07-02T06:52:32;21.27;;;8.45;;
64297;SDS011;50639;53.270;7.956;2023-07-02T06:54:57;26.15;;;8.30;;
64297;SDS011;50639;53.270;7.956;2023-07-02T06:57:22;24.83;;;8.32;;
64297;SDS011;50639;53.270;7.956;2023-07-02T06:59:48;23.65;;;7.63;;
64297;SDS011;50639;53.270;7.956;2023-07-02T07:02:15;23.50;;;8.10;;
64297;SDS011;50639;53.270;7.956;2023-07-02T07:04:40;22.05;;;8.05;;
64297;SDS011;50639;53.270;7.956;2023-07-02T07:07:05;24.95;;;8.63;;
64297;SDS011;50639;53.270;7.956;2023-07-02T07:09:31;23.38;;;8.40;;
64297;SDS011;50639;53.270;7.956;2023-07-02T07:11:56;22.55;;;7.57;;
64297;SDS011;50639;53.270;7.956;2023-07-02T07:14:22;20.73;;;7.85;;
64297;SDS011;50639;53.270;7.956;2023-07-02T07:16:48;21.83;;;7.70;;
64297;SDS011;50639;53.270;7.956;2023-07-02T07:19:13;18.67;;;7.05;;
64297;SDS011;50639;53.270;7.956;2023-07-02T07:21:39;22.60;;;8.45;;
64297;SDS011;50639;53.270;7.956;2023-07-02T07:24:05;21.40;;;7.50;;
64297;SDS011;50639;53.270;7.956;2023-07-02T07:26:31;22.15;;;7.40;;
64297;SDS011;50639;53.270;7.956;2023-07-02T07:28:56;20.80;;;7.07;;
64297;SDS011;50639;53.270;7.956;2023-07-02T07:31:23;21.30;;;7.63;;
64297;SDS011;50639;53.270;7.956;2023-07-02T07:33:48;20.75;;;7.38;;
64297;SDS011;50639;53.270;7.956;2023-07-02T07:36:14;19.17;;;5.78;;
64297;SDS011;50639;53.270;7.956;2023-07-02T07:38:40;18.58;;;6.82;;
64297;SDS011;50639;53.270;7.956;2023-07-02T07:41:05;17.13;;;7.07;;
64297;SDS011;50639;53.270;7.956;2023-07-02T07:43:31;18.13;;;6.57;;
64297;SDS011;50639;53.270;7.956;2023-07-02T07:45:57;26.83;;;7.70;;
64297;SDS011;50639;53.270;7.956;2023-07-02T07:48:24;19.23;;;6.68;;
64297;SDS011;50639;53.270;7.956;2023-07-02T07:50:49;23.52;;;7.93;;
64297;SDS011;50639;53.270;7.956;2023-07-02T07:53:21;17.58;;;6.80;;
64297;SDS011;50639;53.270;7.956;2023-07-02T07:55:46;17.88;;;5.88;;
64297;SDS011;50639;53.270;7.956;2023-07-02T07:58:12;27.25;;;6.10;;
64297;SDS011;50639;53.270;7.956;2023-07-02T08:00:37;16.73;;;6.63;;
64297;SDS011;50639;53.270;7.956;2023-07-02T08:03:02;18.42;;;6.25;;
64297;SDS011;50639;53.270;7.956;2023-07-02T08:05:33;19.25;;;5.68;;
64297;SDS011;50639;53.270;7.956;2023-07-02T08:08:05;16.73;;;6.20;;
64297;SDS011;50639;53.270;7.956;2023-07-02T08:10:31;20.45;;;7.00;;
64297;SDS011;50639;53.270;7.956;2023-07-02T08:13:00;16.30;;;5.78;;
64297;SDS011;50639;53.270;7.956;2023-07-02T08:15:27;14.63;;;5.90;;
64297;SDS011;50639;53.270;7.956;2023-07-02T08:17:52;19.63;;;6.57;;
64297;SDS011;50639;53.270;7.956;2023-07-02T08:20:20;16.55;;;6.28;;
64297;SDS011;50639;53.270;7.956;2023-07-02T08:22:52;16.02;;;6.25;;
64297;SDS011;50639;53.270;7.956;2023-07-02T08:25:21;17.52;;;6.75;;
64297;SDS011;50639;53.270;7.956;2023-07-02T08:27:47;16.83;;;6.43;;
64297;SDS011;50639;53.270;7.956;2023-07-02T08:30:13;16.65;;;5.95;;
64297;SDS011;50639;53.270;7.956;2023-07-02T08:32:38;14.85;;;6.15;;
64297;SDS011;50639;53.270;7.956;2023-07-02T08:35:08;17.05;;;5.30;;
64297;SDS011;50639;53.270;7.956;2023-07-02T08:37:34;25.10;;;12.93;;
64297;SDS011;50639;53.270;7.956;2023-07-02T08:39:59;13.52;;;4.32;;
64297;SDS011;50639;53.270;7.956;2023-07-02T08:42:25;14.45;;;4.97;;
64297;SDS011;50639;53.270;7.956;2023-07-02T08:44:55;12.73;;;4.93;;
64297;SDS011;50639;53.270;7.956;2023-07-02T08:47:22;13.50;;;4.45;;
64297;SDS011;50639;53.270;7.956;2023-07-02T08:49:48;12.32;;;4.30;;
64297;SDS011;50639;53.270;7.956;2023-07-02T08:52:13;16.55;;;4.82;;
64297;SDS011;50639;53.270;7.956;2023-07-02T08:54:39;16.67;;;4.75;;
64297;SDS011;50639;53.270;7.956;2023-07-02T08:57:09;11.82;;;4.05;;
64297;SDS011;50639;53.270;7.956;2023-07-02T08:59:38;15.98;;;4.38;;
64297;SDS011;50639;53.270;7.956;2023-07-02T09:02:03;9.23;;;3.58;;
64297;SDS011;50639;53.270;7.956;2023-07-02T09:04:29;15.98;;;4.00;;
64297;SDS011;50639;53.270;7.956;2023-07-02T09:07:04;10.18;;;3.50;;
64297;SDS011;50639;53.270;7.956;2023-07-02T09:09:30;12.40;;;3.65;;
64297;SDS011;50639;53.270;7.956;2023-07-02T09:11:55;9.65;;;3.00;;
64297;SDS011;50639;53.270;7.956;2023-07-02T09:17:01;7.65;;;2.78;;
64297;SDS011;50639;53.270;7.956;2023-07-02T09:19:36;11.50;;;3.00;;
64297;SDS011;50639;53.270;7.956;2023-07-02T09:22:14;12.65;;;3.67;;
64297;SDS011;50639;53.270;7.956;2023-07-02T09:24:41;12.38;;;3.50;;
64297;SDS011;50639;53.270;7.956;2023-07-02T09:27:15;9.07;;;3.10;;
64297;SDS011;50639;53.270;7.956;2023-07-02T09:29:41;11.65;;;3.35;;
64297;SDS011;50639;53.270;7.956;2023-07-02T09:32:06;9.43;;;3.30;;
64297;SDS011;50639;53.270;7.956;2023-07-02T09:34:35;12.63;;;3.67;;
64297;SDS011;50639;53.270;7.956;2023-07-02T09:37:03;11.43;;;3.50;;
64297;SDS011;50639;53.270;7.956;2023-07-02T09:39:31;8.90;;;3.33;;
64297;SDS011;50639;53.270;7.956;2023-07-02T09:41:59;12.63;;;3.70;;
64297;SDS011;50639;53.270;7.956;2023-07-02T09:44:27;17.25;;;3.88;;
64297;SDS011;50639;53.270;7.956;2023-07-02T09:47:01;16.27;;;4.25;;
64297;SDS011;50639;53.270;7.956;2023-07-02T09:49:37;10.70;;;3.65;;
64297;SDS011;50639;53.270;7.956;2023-07-02T09:52:05;12.27;;;3.60;;
64297;SDS011;50639;53.270;7.956;2023-07-02T09:54:35;9.90;;;3.22;;
64297;SDS011;50639;53.270;7.956;2023-07-02T09:57:02;8.57;;;3.60;;
64297;SDS011;50639;53.270;7.956;2023-07-02T09:59:28;8.98;;;3.63;;
64297;SDS011;50639;53.270;7.956;2023-07-02T10:01:54;10.88;;;3.28;;
64297;SDS011;50639;53.270;7.956;2023-07-02T10:04:20;18.30;;;3.67;;
64297;SDS011;50639;53.270;7.956;2023-07-02T10:06:55;11.02;;;3.67;;
64297;SDS011;50639;53.270;7.956;2023-07-02T10:09:38;7.95;;;3.75;;
64297;SDS011;50639;53.270;7.956;2023-07-02T10:14:50;12.23;;;4.40;;
64297;SDS011;50639;53.270;7.956;2023-07-02T10:17:30;12.73;;;3.95;;
64297;SDS011;50639;53.270;7.956;2023-07-02T10:20:02;13.52;;;4.10;;
64297;SDS011;50639;53.270;7.956;2023-07-02T10:22:49;13.23;;;4.40;;
64297;SDS011;50639;53.270;7.956;2023-07-02T10:25:31;11.15;;;3.97;;
64297;SDS011;50639;53.270;7.956;2023-07-02T10:27:59;13.95;;;4.55;;
64297;SDS011;50639;53.270;7.956;2023-07-02T10:35:34;13.38;;;4.35;;
64297;SDS011;50639;53.270;7.956;2023-07-02T10:37:59;19.05;;;4.97;;
64297;SDS011;50639;53.270;7.956;2023-07-02T10:40:25;12.98;;;4.30;;
64297;SDS011;50639;53.270;7.956;2023-07-02T10:42:52;18.08;;;4.35;;
64297;SDS011;50639;53.270;7.956;2023-07-02T10:45:18;15.65;;;4.40;;
64297;SDS011;50639;53.270;7.956;2023-07-02T10:47:44;18.70;;;4.87;;
64297;SDS011;50639;53.270;7.956;2023-07-02T10:50:16;16.48;;;4.40;;
64297;SDS011;50639;53.270;7.956;2023-07-02T10:52:41;17.42;;;4.40;;
64297;SDS011;50639;53.270;7.956;2023-07-02T10:55:07;10.52;;;4.15;;
64297;SDS011;50639;53.270;7.956;2023-07-02T10:57:33;14.50;;;4.85;;
64297;SDS011;50639;53.270;7.956;2023-07-02T11:00:05;15.77;;;4.95;;
64297;SDS011;50639;53.270;7.956;2023-07-02T11:02:33;12.63;;;3.90;;
64297;SDS011;50639;53.270;7.956;2023-07-02T11:05:02;14.13;;;4.40;;
64297;SDS011;50639;53.270;7.956;2023-07-02T11:07:31;12.88;;;4.78;;
64297;SDS011;50639;53.270;7.956;2023-07-02T11:09:57;13.90;;;4.45;;
64297;SDS011;50639;53.270;7.956;2023-07-02T11:12:29;12.38;;;4.80;;
64297;SDS011;50639;53.270;7.956;2023-07-02T11:15:06;12.18;;;4.20;;
64297;SDS011;50639;53.270;7.956;2023-07-02T11:17:32;12.93;;;4.05;;
64297;SDS011;50639;53.270;7.956;2023-07-02T11:19:58;16.90;;;4.13;;
64297;SDS011;50639;53.270;7.956;2023-07-02T11:22:32;18.33;;;3.90;;
64297;SDS011;50639;53.270;7.956;2023-07-02T11:25:19;11.75;;;3.80;;
64297;SDS011;50639;53.270;7.956;2023-07-02T11:27:47;11.68;;;3.97;;
64297;SDS011;50639;53.270;7.956;2023-07-02T11:30:12;13.90;;;4.07;;
64297;SDS011;50639;53.270;7.956;2023-07-02T11:32:51;13.60;;;4.57;;
64297;SDS011;50639;53.270;7.956;2023-07-02T11:35:18;13.00;;;4.55;;
64297;SDS011;50639;53.270;7.956;2023-07-02T11:37:44;17.30;;;4.15;;
64297;SDS011;50639;53.270;7.956;2023-07-02T11:40:10;13.85;;;3.60;;
64297;SDS011;50639;53.270;7.956;2023-07-02T11:42:36;10.35;;;4.35;;
64297;SDS011;50639;53.270;7.956;2023-07-02T11:45:01;10.98;;;3.50;;
64297;SDS011;50639;53.270;7.956;2023-07-02T11:47:27;14.38;;;3.85;;
64297;SDS011;50639;53.270;7.956;2023-07-02T11:49:53;12.48;;;3.58;;
64297;SDS011;50639;53.270;7.956;2023-07-02T11:52:20;8.68;;;3.17;;
64297;SDS011;50639;53.270;7.956;2023-07-02T11:54:46;9.25;;;3.20;;
64297;SDS011;50639;53.270;7.956;2023-07-02T11:57:12;13.68;;;4.43;;
64297;SDS011;50639;53.270;7.956;2023-07-02T11:59:37;13.63;;;3.80;;
64297;SDS011;50639;53.270;7.956;2023-07-02T12:02:03;12.63;;;4.15;;
64297;SDS011;50639;53.270;7.956;2023-07-02T12:04:29;12.85;;;4.10;;
64297;SDS011;50639;53.270;7.956;2023-07-02T12:06:54;10.15;;;3.70;;
64297;SDS011;50639;53.270;7.956;2023-07-02T12:09:20;16.55;;;4.07;;
64297;SDS011;50639;53.270;7.956;2023-07-02T12:11:45;12.85;;;4.05;;
64297;SDS011;50639;53.270;7.956;2023-07-02T12:14:11;11.77;;;3.70;;
64297;SDS011;50639;53.270;7.956;2023-07-02T12:16:37;13.38;;;3.95;;
64297;SDS011;50639;53.270;7.956;2023-07-02T12:19:02;11.40;;;3.80;;
64297;SDS011;50639;53.270;7.956;2023-07-02T12:21:27;12.80;;;3.78;;
64297;SDS011;50639;53.270;7.956;2023-07-02T12:23:53;12.90;;;3.90;;
64297;SDS011;50639;53.270;7.956;2023-07-02T12:26:18;14.50;;;4.32;;
64297;SDS011;50639;53.270;7.956;2023-07-02T12:28:44;7.45;;;3.28;;
64297;SDS011;50639;53.270;7.956;2023-07-02T12:31:09;18.13;;;4.45;;
64297;SDS011;50639;53.270;7.956;2023-07-02T12:33:35;8.45;;;3.80;;
64297;SDS011;50639;53.270;7.956;2023-07-02T12:36:01;10.77;;;3.60;;
64297;SDS011;50639;53.270;7.956;2023-07-02T12:38:26;13.52;;;4.15;;
64297;SDS011;50639;53.270;7.956;2023-07-02T12:40:51;13.98;;;4.55;;
64297;SDS011;50639;53.270;7.956;2023-07-02T12:43:17;7.95;;;3.38;;
64297;SDS011;50639;53.270;7.956;2023-07-02T12:45:46;9.68;;;4.07;;
64297;SDS011;50639;53.270;7.956;2023-07-02T12:48:12;11.75;;;4.07;;
64297;SDS011;50639;53.270;7.956;2023-07-02T12:50:37;10.20;;;3.63;;
64297;SDS011;50639;53.270;7.956;2023-07-02T12:53:03;8.98;;;3.45;;
64297;SDS011;50639;53.270;7.956;2023-07-02T12:55:28;16.15;;;4.20;;
64297;SDS011;50639;53.270;7.956;2023-07-02T12:57:54;11.82;;;4.00;;
64297;SDS011;50639;53.270;7.956;2023-07-02T13:00:20;10.68;;;3.92;;
64297;SDS011;50639;53.270;7.956;2023-07-02T13:02:46;17.05;;;4.10;;
64297;SDS011;50639;53.270;7.956;2023-07-02T13:05:12;13.82;;;4.60;;
64297;SDS011;50639;53.270;7.956;2023-07-02T13:07:38;12.73;;;4.33;;
64297;SDS011;50639;53.270;7.956;2023-07-02T13:10:03;13.68;;;4.13;;
64297;SDS011;50639;53.270;7.956;2023-07-02T13:12:30;13.30;;;4.25;;
64297;SDS011;50639;53.270;7.956;2023-07-02T13:14:55;14.23;;;3.88;;
64297;SDS011;50639;53.270;7.956;2023-07-02T13:17:20;12.48;;;4.40;;
64297;SDS011;50639;53.270;7.956;2023-07-02T13:19:46;15.05;;;3.95;;
64297;SDS011;50639;53.270;7.956;2023-07-02T13:22:11;13.32;;;4.53;;
64297;SDS011;50639;53.270;7.956;2023-07-02T13:24:37;16.17;;;3.95;;
64297;SDS011;50639;53.270;7.956;2023-07-02T13:27:08;11.25;;;4.03;;
64297;SDS011;50639;53.270;7.956;2023-07-02T13:29:39;11.40;;;3.85;;
64297;SDS011;50639;53.270;7.956;2023-07-02T13:32:04;20.58;;;3.85;;
64297;SDS011;50639;53.270;7.956;2023-07-02T13:34:30;11.60;;;4.07;;
64297;SDS011;50639;53.270;7.956;2023-07-02T13:36:56;11.90;;;4.05;;
64297;SDS011;50639;53.270;7.956;2023-07-02T13:39:21;14.93;;;3.97;;
64297;SDS011;50639;53.270;7.956;2023-07-02T13:41:47;10.75;;;3.47;;
64297;SDS011;50639;53.270;7.956;2023-07-02T13:44:12;9.93;;;3.83;;
64297;SDS011;50639;53.270;7.956;2023-07-02T13:46:39;15.02;;;4.05;;
64297;SDS011;50639;53.270;7.956;2023-07-02T13:49:04;9.57;;;3.42;;
64297;SDS011;50639;53.270;7.956;2023-07-02T13:51:30;12.00;;;3.80;;
64297;SDS011;50639;53.270;7.956;2023-07-02T13:53:55;14.70;;;4.47;;
64297;SDS011;50639;53.270;7.956;2023-07-02T13:56:21;8.95;;;3.75;;
64297;SDS011;50639;53.270;7.956;2023-07-02T14:01:21;11.57;;;3.72;;
64297;SDS011;50639;53.270;7.956;2023-07-02T14:03:50;11.80;;;3.55;;
64297;SDS011;50639;53.270;7.956;2023-07-02T14:06:16;9.40;;;3.57;;
64297;SDS011;50639;53.270;7.956;2023-07-02T14:08:42;12.50;;;3.70;;
64297;SDS011;50639;53.270;7.956;2023-07-02T14:11:07;18.73;;;4.00;;
64297;SDS011;50639;53.270;7.956;2023-07-02T14:13:33;10.07;;;3.63;;
64297;SDS011;50639;53.270;7.956;2023-07-02T14:15:58;9.90;;;3.58;;
64297;SDS011;50639;53.270;7.956;2023-07-02T14:18:24;14.45;;;3.70;;
64297;SDS011;50639;53.270;7.956;2023-07-02T14:20:50;13.52;;;3.97;;
64297;SDS011;50639;53.270;7.956;2023-07-02T14:23:15;15.25;;;4.22;;
64297;SDS011;50639;53.270;7.956;2023-07-02T14:25:40;12.93;;;4.43;;
64297;SDS011;50639;53.270;7.956;2023-07-02T14:28:06;14.10;;;4.65;;
64297;SDS011;50639;53.270;7.956;2023-07-02T14:30:32;10.48;;;4.00;;
64297;SDS011;50639;53.270;7.956;2023-07-02T14:32:57;12.63;;;4.38;;
64297;SDS011;50639;53.270;7.956;2023-07-02T14:35:22;16.30;;;4.10;;
64297;SDS011;50639;53.270;7.956;2023-07-02T14:37:52;11.63;;;4.20;;
64297;SDS011;50639;53.270;7.956;2023-07-02T14:40:18;13.35;;;3.88;;
64297;SDS011;50639;53.270;7.956;2023-07-02T14:42:44;12.40;;;4.28;;
64297;SDS011;50639;53.270;7.956;2023-07-02T14:45:09;9.68;;;4.20;;
64297;SDS011;50639;53.270;7.956;2023-07-02T14:47:35;16.52;;;4.60;;
64297;SDS011;50639;53.270;7.956;2023-07-02T14:50:00;13.77;;;4.43;;